sensor_id;sensor_type;location;lat;lon;timestamp;P1;durP1;ratioP1;P2;durP2;ratioP2
30127;SDS011;16942;53.196;6.592;2023-07-22T00:01:31;12.63;;;6.30;;
30127;SDS011;16942;53.196;6.592;2023-07-22T00:03:57;15.67;;;6.20;;
30127;SDS011;16942;53.196;6.592;2023-07-22T00:06:23;16.70;;;6.70;;
30127;SDS011;16942;53.196;6.592;2023-07-22T00:08:50;12.23;;;5.97;;
30127;SDS011;16942;53.196;6.592;2023-07-22T00:11:16;12.47;;;6.30;;
30127;SDS011;16942;53.196;6.592;2023-07-22T00:13:42;13.73;;;6.33;;
30127;SDS011;16942;53.196;6.592;2023-07-22T00:16:09;11.63;;;5.90;;
30127;SDS011;16942;53.196;6.592;2023-07-22T00:18:36;15.90;;;6.33;;
30127;SDS011;16942;53.196;6.592;2023-07-22T00:21:02;13.80;;;6.50;;
30127;SDS011;16942;53.196;6.592;2023-07-22T00:23:31;16.90;;;7.37;;
30127;SDS011;16942;53.196;6.592;2023-07-22T00:25:57;15.83;;;6.43;;
30127;SDS011;16942;53.196;6.592;2023-07-22T00:28:23;14.47;;;5.70;;
30127;SDS011;16942;53.196;6.592;2023-07-22T00:30:49;13.83;;;6.47;;
30127;SDS011;16942;53.196;6.592;2023-07-22T00:33:15;15.93;;;6.87;;
30127;SDS011;16942;53.196;6.592;2023-07-22T00:35:42;16.00;;;6.20;;
30127;SDS011;16942;53.196;6.592;2023-07-22T00:38:08;12.40;;;6.20;;
30127;SDS011;16942;53.196;6.592;2023-07-22T00:40:34;12.40;;;6.20;;
30127;SDS011;16942;53.196;6.592;2023-07-22T00:43:00;12.63;;;5.77;;
30127;SDS011;16942;53.196;6.592;2023-07-22T00:45:27;15.03;;;6.50;;
30127;SDS011;16942;53.196;6.592;2023-07-22T00:47:53;12.47;;;5.77;;
30127;SDS011;16942;53.196;6.592;2023-07-22T00:50:19;12.17;;;4.80;;
30127;SDS011;16942;53.196;6.592;2023-07-22T00:52:45;11.83;;;5.50;;
30127;SDS011;16942;53.196;6.592;2023-07-22T00:55:11;10.90;;;5.10;;
30127;SDS011;16942;53.196;6.592;2023-07-22T00:57:37;10.93;;;5.83;;
30127;SDS011;16942;53.196;6.592;2023-07-22T01:00:04;13.90;;;6.83;;
30127;SDS011;16942;53.196;6.592;2023-07-22T01:02:30;13.40;;;5.40;;
30127;SDS011;16942;53.196;6.592;2023-07-22T01:04:59;12.20;;;5.73;;
30127;SDS011;16942;53.196;6.592;2023-07-22T01:07:25;10.87;;;5.30;;
30127;SDS011;16942;53.196;6.592;2023-07-22T01:09:55;11.67;;;4.77;;
30127;SDS011;16942;53.196;6.592;2023-07-22T01:12:21;16.37;;;5.80;;
30127;SDS011;16942;53.196;6.592;2023-07-22T01:14:47;11.00;;;4.73;;
30127;SDS011;16942;53.196;6.592;2023-07-22T01:17:13;11.20;;;4.97;;
30127;SDS011;16942;53.196;6.592;2023-07-22T01:19:39;12.47;;;5.73;;
30127;SDS011;16942;53.196;6.592;2023-07-22T01:22:06;8.63;;;5.03;;
30127;SDS011;16942;53.196;6.592;2023-07-22T01:24:35;8.70;;;4.40;;
30127;SDS011;16942;53.196;6.592;2023-07-22T01:27:02;16.40;;;5.13;;
30127;SDS011;16942;53.196;6.592;2023-07-22T01:29:28;8.20;;;4.40;;
30127;SDS011;16942;53.196;6.592;2023-07-22T01:31:54;9.00;;;4.90;;
30127;SDS011;16942;53.196;6.592;2023-07-22T01:34:21;9.63;;;5.10;;
30127;SDS011;16942;53.196;6.592;2023-07-22T01:36:47;9.13;;;4.90;;
30127;SDS011;16942;53.196;6.592;2023-07-22T01:39:14;11.50;;;4.77;;
30127;SDS011;16942;53.196;6.592;2023-07-22T01:41:40;9.43;;;4.93;;
30127;SDS011;16942;53.196;6.592;2023-07-22T01:44:06;8.53;;;4.53;;
30127;SDS011;16942;53.196;6.592;2023-07-22T01:46:33;10.00;;;4.93;;
30127;SDS011;16942;53.196;6.592;2023-07-22T01:49:01;9.07;;;5.07;;
30127;SDS011;16942;53.196;6.592;2023-07-22T01:51:27;12.07;;;5.03;;
30127;SDS011;16942;53.196;6.592;2023-07-22T01:53:53;8.73;;;4.53;;
30127;SDS011;16942;53.196;6.592;2023-07-22T01:56:21;10.70;;;4.40;;
30127;SDS011;16942;53.196;6.592;2023-07-22T01:58:47;9.23;;;4.40;;
30127;SDS011;16942;53.196;6.592;2023-07-22T02:01:13;9.60;;;4.40;;
30127;SDS011;16942;53.196;6.592;2023-07-22T02:03:41;8.73;;;3.80;;
30127;SDS011;16942;53.196;6.592;2023-07-22T02:06:07;10.27;;;4.00;;
30127;SDS011;16942;53.196;6.592;2023-07-22T02:08:33;6.50;;;4.10;;
30127;SDS011;16942;53.196;6.592;2023-07-22T02:11:05;6.23;;;3.80;;
30127;SDS011;16942;53.196;6.592;2023-07-22T02:13:32;10.23;;;4.97;;
30127;SDS011;16942;53.196;6.592;2023-07-22T02:15:58;10.10;;;4.00;;
30127;SDS011;16942;53.196;6.592;2023-07-22T02:18:24;7.63;;;4.20;;
30127;SDS011;16942;53.196;6.592;2023-07-22T02:20:50;7.20;;;4.23;;
30127;SDS011;16942;53.196;6.592;2023-07-22T02:23:17;8.57;;;4.17;;
30127;SDS011;16942;53.196;6.592;2023-07-22T02:25:43;6.03;;;3.93;;
30127;SDS011;16942;53.196;6.592;2023-07-22T02:28:09;11.63;;;4.30;;
30127;SDS011;16942;53.196;6.592;2023-07-22T02:30:38;8.57;;;4.03;;
30127;SDS011;16942;53.196;6.592;2023-07-22T02:33:04;10.30;;;4.37;;
30127;SDS011;16942;53.196;6.592;2023-07-22T02:35:31;7.60;;;4.00;;
30127;SDS011;16942;53.196;6.592;2023-07-22T02:37:58;13.33;;;4.63;;
30127;SDS011;16942;53.196;6.592;2023-07-22T02:40:24;8.97;;;4.40;;
30127;SDS011;16942;53.196;6.592;2023-07-22T02:42:50;11.03;;;5.30;;
30127;SDS011;16942;53.196;6.592;2023-07-22T02:45:16;10.93;;;4.30;;
30127;SDS011;16942;53.196;6.592;2023-07-22T02:47:42;12.07;;;4.17;;
30127;SDS011;16942;53.196;6.592;2023-07-22T02:50:08;11.07;;;4.80;;
30127;SDS011;16942;53.196;6.592;2023-07-22T02:52:34;9.93;;;4.23;;
30127;SDS011;16942;53.196;6.592;2023-07-22T02:55:05;8.60;;;4.43;;
30127;SDS011;16942;53.196;6.592;2023-07-22T02:57:31;6.60;;;3.87;;
30127;SDS011;16942;53.196;6.592;2023-07-22T02:59:57;9.93;;;4.67;;
30127;SDS011;16942;53.196;6.592;2023-07-22T03:02:23;6.43;;;4.13;;
30127;SDS011;16942;53.196;6.592;2023-07-22T03:04:49;13.43;;;4.80;;
30127;SDS011;16942;53.196;6.592;2023-07-22T03:07:15;7.97;;;3.63;;
30127;SDS011;16942;53.196;6.592;2023-07-22T03:09:41;7.67;;;4.10;;
30127;SDS011;16942;53.196;6.592;2023-07-22T03:12:07;7.20;;;3.90;;
30127;SDS011;16942;53.196;6.592;2023-07-22T03:14:34;6.33;;;3.73;;
30127;SDS011;16942;53.196;6.592;2023-07-22T03:17:02;9.43;;;4.70;;
30127;SDS011;16942;53.196;6.592;2023-07-22T03:19:31;7.80;;;4.00;;
30127;SDS011;16942;53.196;6.592;2023-07-22T03:21:57;8.13;;;4.63;;
30127;SDS011;16942;53.196;6.592;2023-07-22T03:24:23;10.33;;;3.63;;
30127;SDS011;16942;53.196;6.592;2023-07-22T03:26:50;9.63;;;4.73;;
30127;SDS011;16942;53.196;6.592;2023-07-22T03:29:16;5.80;;;3.57;;
30127;SDS011;16942;53.196;6.592;2023-07-22T03:31:42;9.33;;;4.57;;
30127;SDS011;16942;53.196;6.592;2023-07-22T03:34:08;8.53;;;4.23;;
30127;SDS011;16942;53.196;6.592;2023-07-22T03:36:34;11.27;;;4.90;;
30127;SDS011;16942;53.196;6.592;2023-07-22T03:39:00;12.40;;;4.63;;
30127;SDS011;16942;53.196;6.592;2023-07-22T03:41:26;9.57;;;4.47;;
30127;SDS011;16942;53.196;6.592;2023-07-22T03:43:52;11.00;;;4.70;;
30127;SDS011;16942;53.196;6.592;2023-07-22T03:46:18;10.07;;;4.77;;
30127;SDS011;16942;53.196;6.592;2023-07-22T03:48:47;9.50;;;4.73;;
30127;SDS011;16942;53.196;6.592;2023-07-22T03:51:13;8.23;;;5.10;;
30127;SDS011;16942;53.196;6.592;2023-07-22T03:53:39;8.00;;;4.70;;
30127;SDS011;16942;53.196;6.592;2023-07-22T03:56:05;10.53;;;5.60;;
30127;SDS011;16942;53.196;6.592;2023-07-22T03:58:31;13.27;;;6.20;;
30127;SDS011;16942;53.196;6.592;2023-07-22T04:00:57;10.73;;;4.93;;
30127;SDS011;16942;53.196;6.592;2023-07-22T04:03:23;9.20;;;5.00;;
30127;SDS011;16942;53.196;6.592;2023-07-22T04:05:55;11.50;;;5.17;;
30127;SDS011;16942;53.196;6.592;2023-07-22T04:08:21;9.77;;;4.07;;
30127;SDS011;16942;53.196;6.592;2023-07-22T04:10:51;11.23;;;4.07;;
30127;SDS011;16942;53.196;6.592;2023-07-22T04:13:17;8.73;;;4.67;;
30127;SDS011;16942;53.196;6.592;2023-07-22T04:15:43;16.50;;;5.20;;
30127;SDS011;16942;53.196;6.592;2023-07-22T04:18:09;8.73;;;4.73;;
30127;SDS011;16942;53.196;6.592;2023-07-22T04:20:36;8.83;;;4.07;;
30127;SDS011;16942;53.196;6.592;2023-07-22T04:23:02;8.80;;;3.87;;
30127;SDS011;16942;53.196;6.592;2023-07-22T04:25:28;10.43;;;4.23;;
30127;SDS011;16942;53.196;6.592;2023-07-22T04:27:54;9.93;;;4.30;;
30127;SDS011;16942;53.196;6.592;2023-07-22T04:30:20;6.97;;;3.60;;
30127;SDS011;16942;53.196;6.592;2023-07-22T04:32:49;19.10;;;4.57;;
30127;SDS011;16942;53.196;6.592;2023-07-22T04:35:18;12.37;;;4.43;;
30127;SDS011;16942;53.196;6.592;2023-07-22T04:37:46;8.80;;;4.40;;
30127;SDS011;16942;53.196;6.592;2023-07-22T04:40:12;9.20;;;4.50;;
30127;SDS011;16942;53.196;6.592;2023-07-22T04:42:43;13.67;;;5.03;;
30127;SDS011;16942;53.196;6.592;2023-07-22T04:45:09;22.60;;;6.93;;
30127;SDS011;16942;53.196;6.592;2023-07-22T04:47:36;24.13;;;7.70;;
30127;SDS011;16942;53.196;6.592;2023-07-22T04:50:02;13.00;;;5.00;;
30127;SDS011;16942;53.196;6.592;2023-07-22T04:52:35;10.03;;;4.40;;
30127;SDS011;16942;53.196;6.592;2023-07-22T04:55:01;8.13;;;4.57;;
30127;SDS011;16942;53.196;6.592;2023-07-22T04:57:40;10.63;;;4.33;;
30127;SDS011;16942;53.196;6.592;2023-07-22T05:00:07;6.87;;;3.87;;
30127;SDS011;16942;53.196;6.592;2023-07-22T05:02:34;9.27;;;4.67;;
30127;SDS011;16942;53.196;6.592;2023-07-22T05:05:00;12.00;;;4.73;;
30127;SDS011;16942;53.196;6.592;2023-07-22T05:07:26;6.93;;;4.27;;
30127;SDS011;16942;53.196;6.592;2023-07-22T05:09:52;11.00;;;4.23;;
30127;SDS011;16942;53.196;6.592;2023-07-22T05:12:19;12.87;;;4.90;;
30127;SDS011;16942;53.196;6.592;2023-07-22T05:14:45;16.60;;;6.13;;
30127;SDS011;16942;53.196;6.592;2023-07-22T05:17:11;10.70;;;5.37;;
30127;SDS011;16942;53.196;6.592;2023-07-22T05:19:37;11.57;;;5.50;;
30127;SDS011;16942;53.196;6.592;2023-07-22T05:22:03;12.80;;;5.30;;
30127;SDS011;16942;53.196;6.592;2023-07-22T05:24:29;13.33;;;5.53;;
30127;SDS011;16942;53.196;6.592;2023-07-22T05:26:55;27.87;;;7.90;;
30127;SDS011;16942;53.196;6.592;2023-07-22T05:29:21;40.17;;;12.97;;
30127;SDS011;16942;53.196;6.592;2023-07-22T05:31:47;32.87;;;9.63;;
30127;SDS011;16942;53.196;6.592;2023-07-22T05:34:13;12.93;;;6.30;;
30127;SDS011;16942;53.196;6.592;2023-07-22T05:36:39;14.60;;;5.90;;
30127;SDS011;16942;53.196;6.592;2023-07-22T05:39:05;11.83;;;5.77;;
30127;SDS011;16942;53.196;6.592;2023-07-22T05:41:34;11.60;;;5.23;;
30127;SDS011;16942;53.196;6.592;2023-07-22T05:44:00;11.27;;;5.77;;
30127;SDS011;16942;53.196;6.592;2023-07-22T05:46:27;8.23;;;5.43;;
30127;SDS011;16942;53.196;6.592;2023-07-22T05:48:53;10.50;;;5.47;;
30127;SDS011;16942;53.196;6.592;2023-07-22T05:51:19;11.83;;;5.53;;
30127;SDS011;16942;53.196;6.592;2023-07-22T05:53:45;13.10;;;6.00;;
30127;SDS011;16942;53.196;6.592;2023-07-22T05:56:11;14.23;;;6.00;;
30127;SDS011;16942;53.196;6.592;2023-07-22T05:58:37;11.03;;;6.03;;
30127;SDS011;16942;53.196;6.592;2023-07-22T06:01:03;9.67;;;6.13;;
30127;SDS011;16942;53.196;6.592;2023-07-22T06:03:29;10.03;;;5.93;;
30127;SDS011;16942;53.196;6.592;2023-07-22T06:05:55;11.77;;;5.80;;
30127;SDS011;16942;53.196;6.592;2023-07-22T06:08:21;12.77;;;6.67;;
30127;SDS011;16942;53.196;6.592;2023-07-22T06:10:47;10.90;;;6.40;;
30127;SDS011;16942;53.196;6.592;2023-07-22T06:13:13;13.80;;;5.80;;
30127;SDS011;16942;53.196;6.592;2023-07-22T06:15:39;15.13;;;6.60;;
30127;SDS011;16942;53.196;6.592;2023-07-22T06:18:05;17.27;;;7.10;;
30127;SDS011;16942;53.196;6.592;2023-07-22T06:20:33;13.30;;;6.40;;
30127;SDS011;16942;53.196;6.592;2023-07-22T06:23:00;13.17;;;6.83;;
30127;SDS011;16942;53.196;6.592;2023-07-22T06:25:26;13.23;;;6.93;;
30127;SDS011;16942;53.196;6.592;2023-07-22T06:27:52;12.60;;;7.03;;
30127;SDS011;16942;53.196;6.592;2023-07-22T06:30:19;13.13;;;7.13;;
30127;SDS011;16942;53.196;6.592;2023-07-22T06:32:45;13.83;;;7.63;;
30127;SDS011;16942;53.196;6.592;2023-07-22T06:35:11;13.07;;;7.10;;
30127;SDS011;16942;53.196;6.592;2023-07-22T06:37:37;13.53;;;8.03;;
30127;SDS011;16942;53.196;6.592;2023-07-22T06:40:04;15.77;;;7.57;;
30127;SDS011;16942;53.196;6.592;2023-07-22T06:42:30;14.17;;;7.97;;
30127;SDS011;16942;53.196;6.592;2023-07-22T06:44:56;14.13;;;7.37;;
30127;SDS011;16942;53.196;6.592;2023-07-22T06:47:22;16.37;;;8.50;;
30127;SDS011;16942;53.196;6.592;2023-07-22T06:49:48;14.20;;;7.73;;
30127;SDS011;16942;53.196;6.592;2023-07-22T06:52:15;14.60;;;7.40;;
30127;SDS011;16942;53.196;6.592;2023-07-22T06:54:41;17.23;;;7.90;;
30127;SDS011;16942;53.196;6.592;2023-07-22T06:57:07;13.73;;;7.43;;
30127;SDS011;16942;53.196;6.592;2023-07-22T06:59:33;13.43;;;7.70;;
30127;SDS011;16942;53.196;6.592;2023-07-22T07:02:00;13.97;;;7.90;;
30127;SDS011;16942;53.196;6.592;2023-07-22T07:04:26;14.97;;;7.50;;
30127;SDS011;16942;53.196;6.592;2023-07-22T07:06:52;11.90;;;7.30;;
30127;SDS011;16942;53.196;6.592;2023-07-22T07:09:21;13.43;;;7.40;;
30127;SDS011;16942;53.196;6.592;2023-07-22T07:11:47;11.73;;;6.90;;
30127;SDS011;16942;53.196;6.592;2023-07-22T07:14:13;14.00;;;8.60;;
30127;SDS011;16942;53.196;6.592;2023-07-22T07:16:39;13.93;;;7.50;;
30127;SDS011;16942;53.196;6.592;2023-07-22T07:19:05;15.23;;;7.13;;
30127;SDS011;16942;53.196;6.592;2023-07-22T07:21:31;14.50;;;7.43;;
30127;SDS011;16942;53.196;6.592;2023-07-22T07:23:57;14.30;;;7.07;;
30127;SDS011;16942;53.196;6.592;2023-07-22T07:26:23;10.37;;;6.67;;
30127;SDS011;16942;53.196;6.592;2023-07-22T07:28:50;16.30;;;8.97;;
30127;SDS011;16942;53.196;6.592;2023-07-22T07:31:16;13.13;;;7.37;;
30127;SDS011;16942;53.196;6.592;2023-07-22T07:33:42;12.13;;;7.30;;
30127;SDS011;16942;53.196;6.592;2023-07-22T07:36:09;12.87;;;7.83;;
30127;SDS011;16942;53.196;6.592;2023-07-22T07:38:35;14.83;;;8.60;;
30127;SDS011;16942;53.196;6.592;2023-07-22T07:41:05;12.47;;;7.43;;
30127;SDS011;16942;53.196;6.592;2023-07-22T07:43:36;14.03;;;7.70;;
30127;SDS011;16942;53.196;6.592;2023-07-22T07:48:42;17.93;;;7.97;;
30127;SDS011;16942;53.196;6.592;2023-07-22T07:51:09;12.50;;;7.80;;
30127;SDS011;16942;53.196;6.592;2023-07-22T07:53:35;13.47;;;7.73;;
30127;SDS011;16942;53.196;6.592;2023-07-22T07:56:01;15.97;;;8.37;;
30127;SDS011;16942;53.196;6.592;2023-07-22T07:58:27;15.10;;;8.03;;
30127;SDS011;16942;53.196;6.592;2023-07-22T08:00:53;12.90;;;7.97;;
30127;SDS011;16942;53.196;6.592;2023-07-22T08:03:19;13.80;;;7.87;;
30127;SDS011;16942;53.196;6.592;2023-07-22T08:05:45;16.53;;;9.10;;
30127;SDS011;16942;53.196;6.592;2023-07-22T08:08:11;15.87;;;7.90;;
30127;SDS011;16942;53.196;6.592;2023-07-22T08:10:37;13.70;;;7.43;;
30127;SDS011;16942;53.196;6.592;2023-07-22T08:13:04;11.07;;;7.30;;
30127;SDS011;16942;53.196;6.592;2023-07-22T08:15:30;12.43;;;6.90;;
30127;SDS011;16942;53.196;6.592;2023-07-22T08:17:56;15.87;;;8.00;;
30127;SDS011;16942;53.196;6.592;2023-07-22T08:20:22;10.90;;;6.70;;
30127;SDS011;16942;53.196;6.592;2023-07-22T08:22:48;13.33;;;7.27;;
30127;SDS011;16942;53.196;6.592;2023-07-22T08:25:14;11.63;;;6.67;;
30127;SDS011;16942;53.196;6.592;2023-07-22T08:27:40;13.53;;;7.03;;
30127;SDS011;16942;53.196;6.592;2023-07-22T08:30:06;10.27;;;6.23;;
30127;SDS011;16942;53.196;6.592;2023-07-22T08:32:32;11.07;;;6.53;;
30127;SDS011;16942;53.196;6.592;2023-07-22T08:34:58;9.07;;;6.13;;
30127;SDS011;16942;53.196;6.592;2023-07-22T08:37:24;9.70;;;6.10;;
30127;SDS011;16942;53.196;6.592;2023-07-22T08:39:51;9.77;;;5.53;;
30127;SDS011;16942;53.196;6.592;2023-07-22T08:42:18;12.10;;;6.50;;
30127;SDS011;16942;53.196;6.592;2023-07-22T08:44:48;11.10;;;5.70;;
30127;SDS011;16942;53.196;6.592;2023-07-22T08:47:17;9.00;;;5.43;;
30127;SDS011;16942;53.196;6.592;2023-07-22T08:49:46;9.67;;;5.90;;
30127;SDS011;16942;53.196;6.592;2023-07-22T08:52:15;7.27;;;5.50;;
30127;SDS011;16942;53.196;6.592;2023-07-22T08:54:41;9.73;;;6.30;;
30127;SDS011;16942;53.196;6.592;2023-07-22T08:57:07;8.60;;;5.67;;
30127;SDS011;16942;53.196;6.592;2023-07-22T08:59:34;8.43;;;5.03;;
30127;SDS011;16942;53.196;6.592;2023-07-22T09:02:01;6.27;;;4.57;;
30127;SDS011;16942;53.196;6.592;2023-07-22T09:04:27;6.30;;;4.17;;
30127;SDS011;16942;53.196;6.592;2023-07-22T09:06:53;11.17;;;4.83;;
30127;SDS011;16942;53.196;6.592;2023-07-22T09:09:20;6.33;;;4.83;;
30127;SDS011;16942;53.196;6.592;2023-07-22T09:11:47;9.53;;;5.70;;
30127;SDS011;16942;53.196;6.592;2023-07-22T09:14:14;6.90;;;4.43;;
30127;SDS011;16942;53.196;6.592;2023-07-22T09:16:40;7.33;;;4.10;;
30127;SDS011;16942;53.196;6.592;2023-07-22T09:19:07;8.10;;;4.17;;
30127;SDS011;16942;53.196;6.592;2023-07-22T09:21:33;7.23;;;3.87;;
30127;SDS011;16942;53.196;6.592;2023-07-22T09:24:04;7.27;;;4.80;;
30127;SDS011;16942;53.196;6.592;2023-07-22T09:26:45;8.00;;;4.77;;
30127;SDS011;16942;53.196;6.592;2023-07-22T09:29:11;6.43;;;4.17;;
30127;SDS011;16942;53.196;6.592;2023-07-22T09:31:47;6.90;;;4.10;;
30127;SDS011;16942;53.196;6.592;2023-07-22T09:34:14;13.87;;;6.60;;
30127;SDS011;16942;53.196;6.592;2023-07-22T09:36:52;13.73;;;6.67;;
30127;SDS011;16942;53.196;6.592;2023-07-22T09:39:19;12.53;;;7.57;;
30127;SDS011;16942;53.196;6.592;2023-07-22T09:41:45;15.00;;;8.03;;
30127;SDS011;16942;53.196;6.592;2023-07-22T09:44:11;13.83;;;8.57;;
30127;SDS011;16942;53.196;6.592;2023-07-22T09:46:40;18.67;;;8.93;;
30127;SDS011;16942;53.196;6.592;2023-07-22T09:49:07;12.80;;;7.13;;
30127;SDS011;16942;53.196;6.592;2023-07-22T09:52:03;15.77;;;9.37;;
30127;SDS011;16942;53.196;6.592;2023-07-22T09:54:37;16.03;;;8.80;;
30127;SDS011;16942;53.196;6.592;2023-07-22T09:57:12;10.90;;;6.83;;
30127;SDS011;16942;53.196;6.592;2023-07-22T09:59:39;11.17;;;6.90;;
30127;SDS011;16942;53.196;6.592;2023-07-22T10:02:05;11.97;;;6.47;;
30127;SDS011;16942;53.196;6.592;2023-07-22T10:04:41;11.17;;;6.53;;
30127;SDS011;16942;53.196;6.592;2023-07-22T10:07:07;15.03;;;7.63;;
30127;SDS011;16942;53.196;6.592;2023-07-22T10:09:36;10.47;;;7.37;;
30127;SDS011;16942;53.196;6.592;2023-07-22T10:12:02;10.37;;;6.37;;
30127;SDS011;16942;53.196;6.592;2023-07-22T10:14:29;9.20;;;5.87;;
30127;SDS011;16942;53.196;6.592;2023-07-22T10:17:05;12.63;;;7.00;;
30127;SDS011;16942;53.196;6.592;2023-07-22T10:19:52;11.67;;;7.27;;
30127;SDS011;16942;53.196;6.592;2023-07-22T10:22:19;11.47;;;6.70;;
30127;SDS011;16942;53.196;6.592;2023-07-22T10:24:45;11.93;;;6.70;;
30127;SDS011;16942;53.196;6.592;2023-07-22T10:27:13;10.20;;;6.03;;
30127;SDS011;16942;53.196;6.592;2023-07-22T10:29:39;10.10;;;6.67;;
30127;SDS011;16942;53.196;6.592;2023-07-22T10:32:06;11.73;;;7.23;;
30127;SDS011;16942;53.196;6.592;2023-07-22T10:34:32;10.43;;;6.50;;
30127;SDS011;16942;53.196;6.592;2023-07-22T10:36:58;13.67;;;6.90;;
30127;SDS011;16942;53.196;6.592;2023-07-22T10:39:25;8.97;;;6.37;;
30127;SDS011;16942;53.196;6.592;2023-07-22T10:41:58;7.33;;;5.67;;
30127;SDS011;16942;53.196;6.592;2023-07-22T10:44:25;7.97;;;5.80;;
30127;SDS011;16942;53.196;6.592;2023-07-22T10:46:58;11.13;;;6.70;;
30127;SDS011;16942;53.196;6.592;2023-07-22T10:49:24;10.67;;;5.87;;
30127;SDS011;16942;53.196;6.592;2023-07-22T10:51:53;7.57;;;5.33;;
30127;SDS011;16942;53.196;6.592;2023-07-22T10:54:34;12.43;;;6.27;;
30127;SDS011;16942;53.196;6.592;2023-07-22T10:59:49;8.40;;;5.90;;
30127;SDS011;16942;53.196;6.592;2023-07-22T11:02:25;10.87;;;4.97;;
30127;SDS011;16942;53.196;6.592;2023-07-22T11:04:52;8.50;;;5.03;;
30127;SDS011;16942;53.196;6.592;2023-07-22T11:07:34;9.37;;;5.27;;
30127;SDS011;16942;53.196;6.592;2023-07-22T11:12:59;9.40;;;5.57;;
30127;SDS011;16942;53.196;6.592;2023-07-22T11:15:27;9.27;;;5.47;;
30127;SDS011;16942;53.196;6.592;2023-07-22T11:17:54;8.43;;;5.40;;
30127;SDS011;16942;53.196;6.592;2023-07-22T11:20:21;8.60;;;5.70;;
30127;SDS011;16942;53.196;6.592;2023-07-22T11:22:50;9.93;;;5.90;;
30127;SDS011;16942;53.196;6.592;2023-07-22T11:25:16;11.00;;;6.13;;
30127;SDS011;16942;53.196;6.592;2023-07-22T11:27:43;9.43;;;5.93;;
30127;SDS011;16942;53.196;6.592;2023-07-22T11:30:10;8.50;;;6.20;;
30127;SDS011;16942;53.196;6.592;2023-07-22T11:32:36;10.20;;;6.27;;
30127;SDS011;16942;53.196;6.592;2023-07-22T11:35:08;10.07;;;6.90;;
30127;SDS011;16942;53.196;6.592;2023-07-22T11:37:34;10.20;;;6.93;;
30127;SDS011;16942;53.196;6.592;2023-07-22T11:40:01;9.77;;;6.50;;
30127;SDS011;16942;53.196;6.592;2023-07-22T11:42:27;10.17;;;7.33;;
30127;SDS011;16942;53.196;6.592;2023-07-22T11:44:54;7.93;;;6.63;;
30127;SDS011;16942;53.196;6.592;2023-07-22T11:47:20;10.00;;;7.13;;
30127;SDS011;16942;53.196;6.592;2023-07-22T11:49:54;9.87;;;7.07;;
30127;SDS011;16942;53.196;6.592;2023-07-22T11:52:20;11.83;;;7.73;;
30127;SDS011;16942;53.196;6.592;2023-07-22T11:54:46;9.43;;;7.17;;
30127;SDS011;16942;53.196;6.592;2023-07-22T11:57:16;11.23;;;7.77;;
30127;SDS011;16942;53.196;6.592;2023-07-22T11:59:46;11.50;;;7.30;;
30127;SDS011;16942;53.196;6.592;2023-07-22T12:02:12;11.40;;;7.17;;
30127;SDS011;16942;53.196;6.592;2023-07-22T12:04:39;11.83;;;7.90;;
30127;SDS011;16942;53.196;6.592;2023-07-22T12:07:05;11.30;;;8.33;;
30127;SDS011;16942;53.196;6.592;2023-07-22T12:09:31;11.83;;;8.07;;
30127;SDS011;16942;53.196;6.592;2023-07-22T12:11:58;16.10;;;8.13;;
30127;SDS011;16942;53.196;6.592;2023-07-22T12:14:31;13.00;;;7.67;;
30127;SDS011;16942;53.196;6.592;2023-07-22T12:16:59;10.37;;;7.50;;
30127;SDS011;16942;53.196;6.592;2023-07-22T12:19:27;9.40;;;7.60;;
30127;SDS011;16942;53.196;6.592;2023-07-22T12:21:53;9.50;;;7.47;;
30127;SDS011;16942;53.196;6.592;2023-07-22T12:24:19;11.60;;;8.40;;
30127;SDS011;16942;53.196;6.592;2023-07-22T12:26:45;13.03;;;7.93;;
30127;SDS011;16942;53.196;6.592;2023-07-22T12:29:11;17.30;;;8.70;;
30127;SDS011;16942;53.196;6.592;2023-07-22T12:31:37;10.73;;;8.90;;
30127;SDS011;16942;53.196;6.592;2023-07-22T12:34:03;12.73;;;8.50;;
30127;SDS011;16942;53.196;6.592;2023-07-22T12:36:29;13.83;;;9.07;;
30127;SDS011;16942;53.196;6.592;2023-07-22T12:38:55;12.93;;;9.43;;
30127;SDS011;16942;53.196;6.592;2023-07-22T12:41:21;17.07;;;8.80;;
30127;SDS011;16942;53.196;6.592;2023-07-22T12:43:47;15.00;;;9.23;;
30127;SDS011;16942;53.196;6.592;2023-07-22T12:46:14;10.77;;;8.57;;
30127;SDS011;16942;53.196;6.592;2023-07-22T12:48:40;15.93;;;8.60;;
30127;SDS011;16942;53.196;6.592;2023-07-22T12:51:06;11.33;;;8.50;;
30127;SDS011;16942;53.196;6.592;2023-07-22T12:53:34;11.60;;;9.03;;
30127;SDS011;16942;53.196;6.592;2023-07-22T12:56:00;11.17;;;7.67;;
30127;SDS011;16942;53.196;6.592;2023-07-22T12:58:29;8.27;;;7.33;;
30127;SDS011;16942;53.196;6.592;2023-07-22T13:00:55;14.17;;;7.83;;
30127;SDS011;16942;53.196;6.592;2023-07-22T13:03:21;11.37;;;7.53;;
30127;SDS011;16942;53.196;6.592;2023-07-22T13:05:47;11.37;;;8.33;;
30127;SDS011;16942;53.196;6.592;2023-07-22T13:08:13;12.53;;;8.33;;
30127;SDS011;16942;53.196;6.592;2023-07-22T13:10:39;9.77;;;7.70;;
30127;SDS011;16942;53.196;6.592;2023-07-22T13:13:09;12.20;;;8.33;;
30127;SDS011;16942;53.196;6.592;2023-07-22T13:15:35;13.53;;;8.40;;
30127;SDS011;16942;53.196;6.592;2023-07-22T13:18:01;26.47;;;11.03;;
30127;SDS011;16942;53.196;6.592;2023-07-22T13:20:28;12.90;;;8.83;;
30127;SDS011;16942;53.196;6.592;2023-07-22T13:22:54;13.43;;;9.13;;
30127;SDS011;16942;53.196;6.592;2023-07-22T13:25:20;10.90;;;8.90;;
30127;SDS011;16942;53.196;6.592;2023-07-22T13:27:46;17.03;;;10.33;;
30127;SDS011;16942;53.196;6.592;2023-07-22T13:30:12;10.87;;;8.17;;
30127;SDS011;16942;53.196;6.592;2023-07-22T13:32:39;10.60;;;8.37;;
30127;SDS011;16942;53.196;6.592;2023-07-22T13:35:05;12.67;;;8.63;;
30127;SDS011;16942;53.196;6.592;2023-07-22T13:37:31;11.97;;;8.50;;
30127;SDS011;16942;53.196;6.592;2023-07-22T13:39:57;13.20;;;8.37;;
30127;SDS011;16942;53.196;6.592;2023-07-22T13:42:24;15.20;;;9.47;;
30127;SDS011;16942;53.196;6.592;2023-07-22T13:44:50;18.27;;;10.13;;
30127;SDS011;16942;53.196;6.592;2023-07-22T13:47:16;13.27;;;9.20;;
30127;SDS011;16942;53.196;6.592;2023-07-22T13:49:42;12.60;;;9.07;;
30127;SDS011;16942;53.196;6.592;2023-07-22T13:52:08;15.20;;;9.80;;
30127;SDS011;16942;53.196;6.592;2023-07-22T13:54:34;10.73;;;8.70;;
30127;SDS011;16942;53.196;6.592;2023-07-22T13:57:00;12.10;;;8.57;;
30127;SDS011;16942;53.196;6.592;2023-07-22T13:59:26;11.57;;;7.97;;
30127;SDS011;16942;53.196;6.592;2023-07-22T14:01:52;12.73;;;7.63;;
30127;SDS011;16942;53.196;6.592;2023-07-22T14:04:18;13.00;;;8.20;;
30127;SDS011;16942;53.196;6.592;2023-07-22T14:06:44;11.43;;;8.13;;
30127;SDS011;16942;53.196;6.592;2023-07-22T14:09:10;9.17;;;7.53;;
30127;SDS011;16942;53.196;6.592;2023-07-22T14:11:36;11.27;;;8.77;;
30127;SDS011;16942;53.196;6.592;2023-07-22T14:14:02;10.93;;;7.93;;
30127;SDS011;16942;53.196;6.592;2023-07-22T14:16:28;10.93;;;8.30;;
30127;SDS011;16942;53.196;6.592;2023-07-22T14:18:54;11.00;;;7.03;;
30127;SDS011;16942;53.196;6.592;2023-07-22T14:21:20;9.77;;;7.10;;
30127;SDS011;16942;53.196;6.592;2023-07-22T14:23:46;9.03;;;7.77;;
30127;SDS011;16942;53.196;6.592;2023-07-22T14:26:12;9.73;;;7.37;;
30127;SDS011;16942;53.196;6.592;2023-07-22T14:28:38;8.63;;;6.80;;
30127;SDS011;16942;53.196;6.592;2023-07-22T14:31:04;11.73;;;7.80;;
30127;SDS011;16942;53.196;6.592;2023-07-22T14:33:30;12.20;;;9.13;;
30127;SDS011;16942;53.196;6.592;2023-07-22T14:35:56;8.70;;;7.57;;
30127;SDS011;16942;53.196;6.592;2023-07-22T14:38:22;11.37;;;8.53;;
30127;SDS011;16942;53.196;6.592;2023-07-22T14:40:48;8.83;;;7.40;;
30127;SDS011;16942;53.196;6.592;2023-07-22T14:43:14;8.80;;;6.83;;
30127;SDS011;16942;53.196;6.592;2023-07-22T14:45:40;11.63;;;8.40;;